createdAt,value
2019-02-06T00:01:10.226Z,4.10
2019-02-06T00:03:41.040Z,4.53
2019-02-06T00:06:11.778Z,3.83
2019-02-06T00:08:42.100Z,4.03
2019-02-06T00:11:12.936Z,4.37
2019-02-06T00:13:43.704Z,4.40
2019-02-06T00:16:14.116Z,5.03
2019-02-06T00:18:44.436Z,4.10
2019-02-06T00:21:15.067Z,4.73
2019-02-06T00:23:45.587Z,4.23
2019-02-06T00:26:16.131Z,4.27
2019-02-06T00:28:46.930Z,3.50
2019-02-06T00:31:17.346Z,3.93
2019-02-06T00:33:48.057Z,4.33
2019-02-06T00:36:18.322Z,3.70
2019-02-06T00:38:48.951Z,4.10
2019-02-06T00:41:19.607Z,3.60
2019-02-06T00:43:49.989Z,4.00
2019-02-06T00:46:20.257Z,3.70
2019-02-06T00:48:52.064Z,3.33
2019-02-06T00:51:22.595Z,3.47
2019-02-06T00:53:53.377Z,3.17
2019-02-06T00:56:24.110Z,3.03
2019-02-06T00:58:55.024Z,3.03
2019-02-06T01:01:25.548Z,3.20
2019-02-06T01:03:55.845Z,2.93
2019-02-06T01:06:26.583Z,3.00
2019-02-06T01:08:58.582Z,3.00
2019-02-06T01:11:29.073Z,3.17
2019-02-06T01:13:59.473Z,3.00
2019-02-06T01:16:30.186Z,3.10
2019-02-06T01:19:00.716Z,3.40
2019-02-06T01:21:31.013Z,2.97
2019-02-06T01:24:01.884Z,2.83
2019-02-06T01:26:32.416Z,2.63
2019-02-06T01:29:02.735Z,2.60
2019-02-06T01:31:33.848Z,3.30
2019-02-06T01:34:04.363Z,2.77
2019-02-06T01:36:34.955Z,3.10
2019-02-06T01:39:11.131Z,3.03
2019-02-06T01:41:41.401Z,3.20
2019-02-06T01:44:12.305Z,2.77
2019-02-06T01:46:45.429Z,2.63
2019-02-06T01:49:15.722Z,2.53
2019-02-06T01:51:46.053Z,2.80
2019-02-06T01:54:16.784Z,3.17
2019-02-06T01:56:47.058Z,2.80
2019-02-06T01:59:17.396Z,3.10
2019-02-06T02:01:48.340Z,2.90
2019-02-06T02:04:18.664Z,3.10
2019-02-06T02:06:49.202Z,2.80
2019-02-06T02:09:20.792Z,2.87
2019-02-06T02:11:51.287Z,3.17
2019-02-06T02:14:22.146Z,3.43
2019-02-06T02:16:52.398Z,3.10
2019-02-06T02:19:22.723Z,3.57
2019-02-06T02:21:53.486Z,3.20
2019-02-06T02:24:23.787Z,3.30
2019-02-06T02:26:54.058Z,3.77
2019-02-06T02:29:25.349Z,3.47
2019-02-06T02:31:56.053Z,3.57
2019-02-06T02:34:26.522Z,4.07
2019-02-06T02:36:57.308Z,3.77
2019-02-06T02:39:27.766Z,3.47
2019-02-06T02:41:58.349Z,3.80
2019-02-06T02:44:28.668Z,3.43
2019-02-06T02:46:58.932Z,3.40
2019-02-06T02:49:29.688Z,3.10
2019-02-06T02:55:24.271Z,3.27
2019-02-06T02:57:55.074Z,3.37
2019-02-06T03:00:37.176Z,2.57
2019-02-06T03:03:26.327Z,2.80
2019-02-06T03:05:57.135Z,2.70
2019-02-06T03:08:28.032Z,2.90
2019-02-06T03:10:58.336Z,2.53
2019-02-06T03:13:28.733Z,2.90
2019-02-06T03:15:59.053Z,2.73
2019-02-06T03:18:29.837Z,2.70
2019-02-06T03:21:00.512Z,2.97
2019-02-06T03:24:07.483Z,2.50
2019-02-06T03:26:38.394Z,2.50
2019-02-06T03:29:09.137Z,2.77
2019-02-06T03:31:39.654Z,2.40
2019-02-06T03:34:09.995Z,2.53
2019-02-06T03:36:41.023Z,2.40
2019-02-06T03:39:11.366Z,2.57
2019-02-06T03:41:41.688Z,2.70
2019-02-06T03:44:12.580Z,2.27
2019-02-06T03:46:42.952Z,2.50
2019-02-06T03:49:13.325Z,2.43
2019-02-06T03:51:43.696Z,2.67
2019-02-06T03:54:15.196Z,3.03
2019-02-06T03:56:46.689Z,3.13
2019-02-06T03:59:16.950Z,3.20
2019-02-06T04:01:47.460Z,3.20
2019-02-06T04:04:18.086Z,2.87
2019-02-06T04:06:54.951Z,2.70
2019-02-06T04:09:20.378Z,2.80
2019-02-06T04:11:51.494Z,3.20
2019-02-06T04:14:21.789Z,3.10
2019-02-06T04:16:52.116Z,3.37
2019-02-06T04:19:22.455Z,3.10
2019-02-06T04:21:53.266Z,3.23
2019-02-06T04:24:24.071Z,3.50
2019-02-06T04:26:54.885Z,3.53
2019-02-06T04:29:25.547Z,2.87
2019-02-06T04:31:55.868Z,3.63
2019-02-06T04:34:26.303Z,3.17
2019-02-06T04:37:06.353Z,3.37
2019-02-06T04:39:29.269Z,3.93
2019-02-06T04:41:59.795Z,3.40
2019-02-06T04:44:30.179Z,3.80
2019-02-06T04:47:00.531Z,3.30
2019-02-06T04:49:31.010Z,3.40
2019-02-06T04:52:01.596Z,3.40
2019-02-06T04:54:32.077Z,3.27
2019-02-06T04:57:03.143Z,3.53
2019-02-06T04:59:33.446Z,3.50
2019-02-06T05:02:03.850Z,3.60
2019-02-06T05:04:34.508Z,3.50
2019-02-06T05:07:05.212Z,3.40
2019-02-06T05:09:35.491Z,3.80
2019-02-06T05:12:09.091Z,3.97
2019-02-06T05:14:38.211Z,3.03
2019-02-06T05:17:08.477Z,3.47
2019-02-06T05:19:39.044Z,3.70
2019-02-06T05:22:09.506Z,2.20
2019-02-06T05:24:40.277Z,2.40
2019-02-06T05:27:10.676Z,2.03
2019-02-06T05:29:41.139Z,1.97
2019-02-06T05:32:11.870Z,2.33
2019-02-06T05:34:42.773Z,2.83
2019-02-06T05:37:13.054Z,2.63
2019-02-06T05:39:43.411Z,2.20
2019-02-06T05:42:13.890Z,2.70
2019-02-06T05:44:44.162Z,2.77
2019-02-06T05:47:15.029Z,3.27
2019-02-06T05:49:45.996Z,2.70
2019-02-06T05:52:16.421Z,2.60
2019-02-06T05:54:46.908Z,3.03
2019-02-06T05:57:17.234Z,2.70
2019-02-06T05:59:48.008Z,2.40
2019-02-06T06:02:18.516Z,2.80
2019-02-06T06:04:48.840Z,3.23
2019-02-06T06:07:19.212Z,3.23
2019-02-06T06:09:49.570Z,2.70
2019-02-06T06:12:20.105Z,3.03
2019-02-06T06:14:50.422Z,3.73
2019-02-06T06:17:21.145Z,4.50
2019-02-06T06:19:51.426Z,3.33
2019-02-06T06:22:21.740Z,3.93
2019-02-06T06:24:52.218Z,4.13
2019-02-06T06:27:22.960Z,9.10
2019-02-06T06:29:53.653Z,8.80
2019-02-06T06:32:24.343Z,6.27
2019-02-06T06:34:54.714Z,8.30
2019-02-06T06:37:25.348Z,5.27
2019-02-06T06:39:55.614Z,9.87
2019-02-06T06:42:26.173Z,5.87
2019-02-06T06:44:56.931Z,3.70
2019-02-06T06:47:27.349Z,4.67
2019-02-06T06:49:57.642Z,2.80
2019-02-06T06:52:28.488Z,2.90
2019-02-06T06:54:59.014Z,3.27
2019-02-06T06:57:30.490Z,3.50
2019-02-06T07:00:01.190Z,3.07
2019-02-06T07:02:32.357Z,3.37
2019-02-06T07:05:05.603Z,3.53
2019-02-06T07:07:35.168Z,2.50
2019-02-06T07:10:06.534Z,3.17
2019-02-06T07:12:36.921Z,3.90
2019-02-06T07:15:09.175Z,3.10
2019-02-06T07:17:39.509Z,3.50
2019-02-06T07:20:12.513Z,3.47
2019-02-06T07:22:43.045Z,3.30
2019-02-06T07:25:14.584Z,2.70
2019-02-06T07:27:45.470Z,3.97
2019-02-06T07:30:22.523Z,4.63
2019-02-06T07:32:53.513Z,4.03
2019-02-06T07:35:23.807Z,5.80
2019-02-06T07:37:54.095Z,4.53
2019-02-06T07:40:24.976Z,3.80
2019-02-06T07:42:55.336Z,4.33
2019-02-06T07:45:25.610Z,4.27
2019-02-06T07:47:56.301Z,3.90
2019-02-06T07:50:28.912Z,3.73
2019-02-06T07:52:59.614Z,4.63
2019-02-06T07:55:30.496Z,5.73
2019-02-06T07:58:01.576Z,4.30
2019-02-06T08:00:31.953Z,3.80
2019-02-06T08:03:02.693Z,3.83
2019-02-06T08:05:32.978Z,4.37
2019-02-06T08:08:04.933Z,4.77
2019-02-06T08:10:35.677Z,4.07
2019-02-06T08:13:06.674Z,5.07
2019-02-06T08:15:37.305Z,4.20
2019-02-06T08:18:08.325Z,4.83
2019-02-06T08:20:38.988Z,4.47
2019-02-06T08:23:09.744Z,5.03
2019-02-06T08:25:40.255Z,4.73
2019-02-06T08:28:11.561Z,4.90
2019-02-06T08:30:42.426Z,4.20
2019-02-06T08:33:13.318Z,5.67
2019-02-06T08:35:43.590Z,5.40
2019-02-06T08:38:13.924Z,4.50
2019-02-06T08:40:44.548Z,4.47
2019-02-06T08:43:15.131Z,3.90
2019-02-06T08:45:45.413Z,4.87
2019-02-06T08:48:15.986Z,4.97
2019-02-06T08:50:46.782Z,5.23
2019-02-06T08:53:17.102Z,3.80
2019-02-06T08:55:47.827Z,3.20
2019-02-06T08:58:18.820Z,3.23
2019-02-06T09:00:49.103Z,3.27
2019-02-06T09:03:19.791Z,4.07
2019-02-06T09:05:50.182Z,3.77
2019-02-06T09:08:20.744Z,3.17
2019-02-06T09:10:51.621Z,3.77
2019-02-06T09:13:21.914Z,5.47
2019-02-06T09:15:52.824Z,4.27
2019-02-06T09:18:23.513Z,4.50
2019-02-06T09:20:53.921Z,4.37
2019-02-06T09:23:24.373Z,4.47
2019-02-06T09:25:57.429Z,3.23
2019-02-06T09:28:27.416Z,4.10
2019-02-06T09:30:57.747Z,5.10
2019-02-06T09:33:28.361Z,8.77
2019-02-06T09:35:58.851Z,6.60
2019-02-06T09:38:29.227Z,3.70
2019-02-06T09:40:59.578Z,4.87
2019-02-06T09:43:30.254Z,4.17
2019-02-06T09:46:00.977Z,3.67
2019-02-06T09:48:31.234Z,3.90
2019-02-06T09:51:01.644Z,5.47
2019-02-06T09:53:32.266Z,3.73
2019-02-06T09:56:02.537Z,4.67
2019-02-06T09:58:33.025Z,4.43
2019-02-06T10:01:03.677Z,5.13
2019-02-06T10:03:34.169Z,5.00
2019-02-06T10:06:04.467Z,5.33
2019-02-06T10:08:36.189Z,3.93
2019-02-06T10:11:06.801Z,6.50
2019-02-06T10:13:37.274Z,4.53
2019-02-06T10:16:07.637Z,6.63
2019-02-06T10:18:37.967Z,5.80
2019-02-06T10:21:08.812Z,4.60
2019-02-06T10:23:39.334Z,4.70
2019-02-06T10:26:09.791Z,4.03
2019-02-06T10:28:40.451Z,3.93
2019-02-06T10:31:11.142Z,4.60
2019-02-06T10:33:41.660Z,4.20
2019-02-06T10:36:12.097Z,4.40
2019-02-06T10:38:43.023Z,4.60
2019-02-06T10:41:13.316Z,4.60
2019-02-06T10:43:43.750Z,4.70
2019-02-06T10:46:14.150Z,4.77
2019-02-06T10:48:44.914Z,5.23
2019-02-06T10:51:15.995Z,6.00
2019-02-06T10:53:46.410Z,4.77
2019-02-06T10:56:17.088Z,5.87
2019-02-06T10:58:47.932Z,7.40
2019-02-06T11:01:18.184Z,5.40
2019-02-06T11:03:48.543Z,4.47
2019-02-06T11:06:19.116Z,4.20
2019-02-06T11:08:49.829Z,4.30
2019-02-06T11:11:20.135Z,4.20
2019-02-06T11:13:51.118Z,5.27
2019-02-06T11:16:21.713Z,4.40
2019-02-06T11:18:52.407Z,3.63
2019-02-06T11:21:23.001Z,4.07
2019-02-06T11:23:53.510Z,4.77
2019-02-06T11:26:24.237Z,3.83
2019-02-06T11:28:54.624Z,4.77
2019-02-06T11:31:24.908Z,4.60
2019-02-06T11:33:55.810Z,3.90
2019-02-06T11:36:26.205Z,2.93
2019-02-06T11:38:56.509Z,4.10
2019-02-06T11:41:27.308Z,2.70
2019-02-06T11:43:57.777Z,2.93
2019-02-06T11:46:28.519Z,3.03
2019-02-06T11:48:59.008Z,3.47
2019-02-06T11:51:29.411Z,4.50
2019-02-06T11:54:00.317Z,4.07
2019-02-06T11:56:30.583Z,2.57
2019-02-06T11:59:01.300Z,4.77
2019-02-06T12:01:36.167Z,4.13
2019-02-06T12:04:06.524Z,5.60
2019-02-06T12:06:37.012Z,5.87
2019-02-06T12:09:12.809Z,5.27
2019-02-06T12:11:43.399Z,4.07
2019-02-06T12:14:14.109Z,3.57
2019-02-06T12:16:44.661Z,3.70
2019-02-06T12:19:15.265Z,3.73
2019-02-06T12:21:46.034Z,3.47
2019-02-06T12:24:16.586Z,3.27
2019-02-06T12:26:46.854Z,3.20
2019-02-06T12:29:17.556Z,3.03
2019-02-06T12:31:47.954Z,3.30
2019-02-06T12:34:18.201Z,3.43
2019-02-06T12:36:48.691Z,3.27
2019-02-06T12:39:19.340Z,2.97
2019-02-06T12:41:49.847Z,2.93
2019-02-06T12:44:20.637Z,3.30
2019-02-06T12:46:51.237Z,3.53
2019-02-06T12:49:21.552Z,3.20
2019-02-06T12:51:52.555Z,3.50
2019-02-06T12:54:23.305Z,5.30
2019-02-06T12:56:53.604Z,5.30
2019-02-06T12:59:24.235Z,5.53
2019-02-06T13:01:54.715Z,5.73
2019-02-06T13:04:25.296Z,4.27
2019-02-06T13:06:55.670Z,4.13
2019-02-06T13:09:26.407Z,4.30
2019-02-06T13:11:57.082Z,4.33
2019-02-06T13:14:27.653Z,3.67
2019-02-06T13:16:58.437Z,4.67
2019-02-06T13:19:29.139Z,4.60
2019-02-06T13:21:59.533Z,5.07
2019-02-06T13:24:30.078Z,4.60
2019-02-06T13:27:00.545Z,4.57
2019-02-06T13:29:31.358Z,5.77
2019-02-06T13:32:01.755Z,5.17
2019-02-06T13:34:32.109Z,6.03
2019-02-06T13:37:02.799Z,6.40
2019-02-06T13:39:33.593Z,7.43
2019-02-06T13:42:05.604Z,8.63
2019-02-06T13:44:36.155Z,7.83
2019-02-06T13:47:06.957Z,7.13
2019-02-06T13:49:37.331Z,5.40
2019-02-06T13:52:07.751Z,5.40
2019-02-06T13:54:39.205Z,6.33
2019-02-06T13:57:09.856Z,6.50
2019-02-06T13:59:40.646Z,6.10
2019-02-06T14:02:10.955Z,5.90
2019-02-06T14:04:41.595Z,4.50
2019-02-06T14:07:12.389Z,4.93
2019-02-06T14:09:42.710Z,7.50
2019-02-06T14:12:13.701Z,5.30
2019-02-06T14:14:44.432Z,6.30
2019-02-06T14:17:18.212Z,5.67
2019-02-06T14:19:47.740Z,4.80
2019-02-06T14:22:18.575Z,4.10
2019-02-06T14:25:10.122Z,4.33
2019-02-06T14:27:52.608Z,3.70
2019-02-06T14:30:37.671Z,4.07
2019-02-06T14:33:42.556Z,5.20
2019-02-06T14:37:01.628Z,5.13
2019-02-06T14:39:56.501Z,4.67
2019-02-06T14:42:55.542Z,4.70
2019-02-06T14:45:44.408Z,5.23
2019-02-06T14:49:05.298Z,5.23
2019-02-06T14:52:34.767Z,4.30
2019-02-06T14:55:31.928Z,5.20
2019-02-06T14:58:33.240Z,6.03
2019-02-06T15:01:14.741Z,6.17
2019-02-06T15:04:35.334Z,4.53
2019-02-06T15:07:46.538Z,3.70
2019-02-06T15:10:57.141Z,3.53
2019-02-06T15:13:54.096Z,3.20
2019-02-06T15:17:15.937Z,4.50
2019-02-06T15:20:27.630Z,5.63
2019-02-06T15:23:36.555Z,5.53
2019-02-06T15:26:22.491Z,22.30
2019-02-06T15:29:11.561Z,10.37
2019-02-06T15:32:53.427Z,12.40
2019-02-06T15:35:59.798Z,16.43
2019-02-06T15:38:56.547Z,9.70
2019-02-06T15:41:46.967Z,18.03
2019-02-06T15:44:32.570Z,14.77
2019-02-06T15:47:41.584Z,21.53
2019-02-06T15:50:46.683Z,21.63
2019-02-06T15:53:53.449Z,22.00
2019-02-06T15:57:03.406Z,33.57
2019-02-06T16:00:15.622Z,44.43
2019-02-06T16:02:58.717Z,32.47
2019-02-06T16:06:03.268Z,35.07
2019-02-06T16:09:10.294Z,22.23
2019-02-06T16:12:27.688Z,24.03
2019-02-06T16:15:43.204Z,24.80
2019-02-06T16:18:59.267Z,26.73
2019-02-06T16:22:02.056Z,30.13
2019-02-06T16:24:42.127Z,28.43
2019-02-06T16:27:46.728Z,29.37
2019-02-06T16:30:58.613Z,39.20
2019-02-06T16:34:24.947Z,39.93
2019-02-06T16:37:13.054Z,24.37
2019-02-06T16:40:45.705Z,17.23
2019-02-06T16:43:54.363Z,17.00
2019-02-06T16:46:37.313Z,18.03
2019-02-06T16:49:53.574Z,14.97
2019-02-06T16:52:50.640Z,18.30
2019-02-06T16:56:17.347Z,12.93
2019-02-06T16:59:32.753Z,12.53
2019-02-06T17:02:28.649Z,11.93
2019-02-06T17:05:33.362Z,11.07
2019-02-06T17:08:30.881Z,10.60
2019-02-06T17:11:38.051Z,11.60
2019-02-06T17:14:22.009Z,12.37
2019-02-06T17:17:09.527Z,12.63
2019-02-06T17:20:25.650Z,10.40
2019-02-06T17:23:11.626Z,9.57
2019-02-06T17:26:29.315Z,11.17
2019-02-06T17:29:31.637Z,18.77
2019-02-06T17:32:44.121Z,12.23
2019-02-06T17:36:04.631Z,11.17
2019-02-06T17:39:11.624Z,10.40
2019-02-06T17:42:15.115Z,8.77
2019-02-06T17:45:26.478Z,9.23
2019-02-06T17:48:29.620Z,9.73
2019-02-06T17:51:40.974Z,9.40
2019-02-06T17:54:18.333Z,10.07
2019-02-06T17:56:48.865Z,22.07
2019-02-06T17:59:19.169Z,13.90
2019-02-06T18:01:53.542Z,9.90
2019-02-06T18:04:35.870Z,7.27
2019-02-06T18:07:06.697Z,7.47
2019-02-06T18:09:38.502Z,7.20
2019-02-06T18:12:09.505Z,9.77
2019-02-06T18:14:39.810Z,12.50
2019-02-06T18:17:11.400Z,11.10
2019-02-06T18:19:41.962Z,12.93
2019-02-06T18:22:12.719Z,10.33
2019-02-06T18:24:43.175Z,11.63
2019-02-06T18:27:13.891Z,9.80
2019-02-06T18:29:44.676Z,7.60
2019-02-06T18:32:15.323Z,10.40
2019-02-06T18:34:45.925Z,10.50
2019-02-06T18:37:16.775Z,10.50
2019-02-06T18:39:47.548Z,10.93
2019-02-06T18:42:17.949Z,12.50
2019-02-06T18:44:48.522Z,19.50
2019-02-06T18:47:19.191Z,21.77
2019-02-06T18:49:49.802Z,14.97
2019-02-06T18:52:20.910Z,11.97
2019-02-06T18:54:52.323Z,13.30
2019-02-06T18:57:24.091Z,19.93
2019-02-06T18:59:54.948Z,20.47
2019-02-06T19:02:25.292Z,30.50
2019-02-06T19:04:55.959Z,21.37
2019-02-06T19:07:26.720Z,9.00
2019-02-06T19:09:57.051Z,7.30
2019-02-06T19:12:27.448Z,6.93
2019-02-06T19:14:58.932Z,7.10
2019-02-06T19:17:29.320Z,6.87
2019-02-06T19:19:59.765Z,7.70
2019-02-06T19:22:32.874Z,23.70
2019-02-06T19:25:03.155Z,12.27
2019-02-06T19:27:33.936Z,13.73
2019-02-06T19:30:05.654Z,12.60
2019-02-06T19:32:35.974Z,18.10
2019-02-06T19:35:07.423Z,11.07
2019-02-06T19:37:37.776Z,15.40
2019-02-06T19:40:08.745Z,20.00
2019-02-06T19:42:39.125Z,17.67
2019-02-06T19:45:09.915Z,24.23
2019-02-06T19:47:40.215Z,19.73
2019-02-06T19:50:18.029Z,14.20
2019-02-06T19:52:48.774Z,16.17
2019-02-06T19:55:19.491Z,11.47
2019-02-06T19:57:49.818Z,11.77
2019-02-06T20:00:23.213Z,13.17
2019-02-06T20:02:53.878Z,7.37
2019-02-06T20:05:24.735Z,9.93
2019-02-06T20:07:55.497Z,7.57
2019-02-06T20:10:34.445Z,5.10
2019-02-06T20:13:12.393Z,6.33
2019-02-06T20:15:37.356Z,4.80
2019-02-06T20:18:08.189Z,6.97
2019-02-06T20:20:38.757Z,68.80
2019-02-06T20:23:09.129Z,80.10
2019-02-06T20:25:39.688Z,57.73
2019-02-06T20:28:10.049Z,33.00
2019-02-06T20:30:40.853Z,27.13
2019-02-06T20:33:11.552Z,28.07
2019-02-06T20:35:42.274Z,23.27
2019-02-06T20:38:13.035Z,16.17
2019-02-06T20:40:43.488Z,11.47
2019-02-06T20:43:21.794Z,10.00
2019-02-06T20:45:45.809Z,8.00
2019-02-06T20:48:17.319Z,7.67
2019-02-06T20:50:47.876Z,6.33
2019-02-06T20:53:18.255Z,5.50
2019-02-06T20:55:49.197Z,4.17
2019-02-06T20:58:19.470Z,4.43
2019-02-06T21:00:50.167Z,4.90
2019-02-06T21:03:20.579Z,6.73
2019-02-06T21:05:51.000Z,3.83
2019-02-06T21:08:21.808Z,3.80
2019-02-06T21:10:52.082Z,3.20
2019-02-06T21:13:32.480Z,4.13
2019-02-06T21:15:54.705Z,5.40
2019-02-06T21:18:25.588Z,5.93
2019-02-06T21:20:56.016Z,6.43
2019-02-06T21:23:26.712Z,6.77
2019-02-06T21:25:57.363Z,6.13
2019-02-06T21:28:27.731Z,7.30
2019-02-06T21:30:58.470Z,6.30
2019-02-06T21:33:28.886Z,6.27
2019-02-06T21:35:59.644Z,5.47
2019-02-06T21:38:30.100Z,5.43
2019-02-06T21:41:00.342Z,4.73
2019-02-06T21:43:30.760Z,4.87
2019-02-06T21:46:01.390Z,5.43
2019-02-06T21:48:32.883Z,6.70
2019-02-06T21:51:03.624Z,4.73
2019-02-06T21:53:34.828Z,4.70
2019-02-06T21:56:05.824Z,4.33
2019-02-06T21:58:36.583Z,4.27
2019-02-06T22:01:07.301Z,5.13
2019-02-06T22:03:38.699Z,5.10
2019-02-06T22:06:09.173Z,4.73
2019-02-06T22:08:39.917Z,4.73
2019-02-06T22:11:10.175Z,5.17
2019-02-06T22:13:40.481Z,5.43
2019-02-06T22:16:10.976Z,4.60
2019-02-06T22:18:41.312Z,5.63
2019-02-06T22:21:11.679Z,5.30
2019-02-06T22:23:42.495Z,5.27
2019-02-06T22:26:13.112Z,4.87
2019-02-06T22:28:44.489Z,4.93
2019-02-06T22:31:15.283Z,5.33
2019-02-06T22:33:45.835Z,5.03
2019-02-06T22:36:16.176Z,4.60
2019-02-06T22:38:46.466Z,3.90
2019-02-06T22:41:16.976Z,3.53
2019-02-06T22:43:47.634Z,3.90
2019-02-06T22:46:18.326Z,4.30
2019-02-06T22:48:48.640Z,3.87
2019-02-06T22:51:19.552Z,4.40
2019-02-06T22:53:50.457Z,5.00
2019-02-06T22:56:21.063Z,5.20
2019-02-06T22:58:51.727Z,3.93
2019-02-06T23:01:32.582Z,4.17
2019-02-06T23:04:03.223Z,4.80
2019-02-06T23:06:33.693Z,4.77
2019-02-06T23:09:05.491Z,4.03
2019-02-06T23:11:37.107Z,4.43
2019-02-06T23:14:17.120Z,5.00
2019-02-06T23:16:41.647Z,4.47
2019-02-06T23:19:12.400Z,5.07
2019-02-06T23:21:43.127Z,5.50
2019-02-06T23:24:13.391Z,4.70
2019-02-06T23:26:43.868Z,4.43
2019-02-06T23:29:14.681Z,4.40
2019-02-06T23:31:45.066Z,4.27
2019-02-06T23:34:15.374Z,4.30
2019-02-06T23:36:46.191Z,3.70
2019-02-06T23:39:19.965Z,5.20
2019-02-06T23:41:50.795Z,5.93
2019-02-06T23:44:28.529Z,7.00
2019-02-06T23:46:56.097Z,7.23
2019-02-06T23:49:25.702Z,8.43
2019-02-06T23:51:56.106Z,7.60
2019-02-06T23:54:26.418Z,4.80
2019-02-06T23:56:57.400Z,3.77
2019-02-06T23:59:27.668Z,2.80
